createdAt,value
2023-01-09T00:01:34.779Z,9.91
2023-01-09T00:04:03.193Z,9.88
2023-01-09T00:06:30.799Z,9.90
2023-01-09T00:08:58.562Z,9.94
2023-01-09T00:11:26.638Z,9.94
2023-01-09T00:13:54.519Z,10.00
2023-01-09T00:16:22.358Z,10.10
2023-01-09T00:18:50.546Z,10.07
2023-01-09T00:21:18.153Z,9.98
2023-01-09T00:23:46.516Z,9.93
2023-01-09T00:26:20.160Z,9.86
2023-01-09T00:28:50.577Z,9.79
2023-01-09T00:31:18.910Z,9.82
2023-01-09T00:33:56.229Z,9.79
2023-01-09T00:36:23.979Z,9.79
2023-01-09T00:38:51.925Z,9.74
2023-01-09T00:41:31.581Z,9.67
2023-01-09T00:44:07.322Z,9.74
2023-01-09T00:46:37.584Z,9.96
2023-01-09T00:49:07.955Z,9.89
2023-01-09T00:51:36.761Z,9.98
2023-01-09T00:54:04.816Z,9.90
2023-01-09T00:56:35.092Z,9.97
2023-01-09T00:59:04.196Z,9.82
2023-01-09T01:01:32.451Z,9.97
2023-01-09T01:04:20.069Z,10.06
2023-01-09T01:07:06.392Z,10.15
2023-01-09T01:09:33.998Z,10.51
2023-01-09T01:12:07.249Z,10.35
2023-01-09T01:14:36.779Z,10.47
2023-01-09T01:17:05.769Z,10.42
2023-01-09T01:19:34.617Z,10.39
2023-01-09T01:22:03.237Z,10.43
2023-01-09T01:24:31.533Z,10.28
2023-01-09T01:26:59.192Z,10.30
2023-01-09T01:29:27.251Z,10.37
2023-01-09T01:31:55.096Z,10.40
2023-01-09T01:34:22.746Z,10.36
2023-01-09T01:36:50.380Z,10.43
2023-01-09T01:39:18.170Z,10.33
2023-01-09T01:41:46.013Z,10.31
2023-01-09T01:44:50.711Z,10.39
2023-01-09T01:47:19.548Z,10.37
2023-01-09T01:49:47.654Z,10.34
2023-01-09T01:52:16.316Z,10.09
2023-01-09T01:54:43.965Z,10.16
2023-01-09T01:57:12.384Z,10.27
2023-01-09T01:59:50.397Z,10.35
2023-01-09T02:02:22.518Z,10.38
2023-01-09T02:04:52.523Z,10.24
2023-01-09T02:07:20.062Z,10.39
2023-01-09T02:09:47.753Z,10.12
2023-01-09T02:12:23.864Z,10.39
2023-01-09T02:15:13.768Z,10.55
2023-01-09T02:18:11.937Z,10.54
2023-01-09T02:21:07.048Z,10.55
2023-01-09T02:23:46.446Z,10.64
2023-01-09T02:26:31.943Z,10.57
2023-01-09T02:29:20.420Z,9.94
2023-01-09T02:31:53.943Z,9.95
2023-01-09T02:34:27.087Z,10.02
2023-01-09T02:37:09.553Z,10.10
2023-01-09T02:39:40.097Z,10.27
2023-01-09T02:42:19.280Z,10.11
2023-01-09T02:44:47.204Z,10.40
2023-01-09T02:47:20.841Z,10.42
2023-01-09T02:49:52.771Z,10.37
2023-01-09T02:52:54.067Z,10.32
2023-01-09T02:55:27.339Z,10.02
2023-01-09T02:58:16.739Z,10.09
2023-01-09T03:01:11.616Z,10.21
2023-01-09T03:04:17.422Z,10.15
2023-01-09T03:06:54.382Z,10.26
2023-01-09T03:09:27.731Z,10.05
2023-01-09T03:12:08.955Z,9.89
2023-01-09T03:14:40.597Z,9.67
2023-01-09T03:17:13.041Z,9.64
2023-01-09T03:19:42.633Z,9.47
2023-01-09T03:22:10.322Z,9.24
2023-01-09T03:24:39.028Z,9.13
2023-01-09T03:27:09.875Z,9.24
2023-01-09T03:29:37.679Z,9.15
2023-01-09T03:32:05.551Z,9.28
2023-01-09T03:34:33.150Z,9.23
2023-01-09T03:37:00.773Z,9.27
2023-01-09T03:39:28.710Z,9.52
2023-01-09T03:41:56.341Z,9.21
2023-01-09T03:44:24.025Z,9.07
2023-01-09T03:46:51.628Z,9.25
2023-01-09T03:49:19.350Z,9.34
2023-01-09T03:51:46.985Z,9.07
2023-01-09T03:54:14.463Z,9.21
2023-01-09T03:56:42.048Z,9.41
2023-01-09T03:59:09.800Z,9.74
2023-01-09T04:01:37.541Z,9.46
2023-01-09T04:04:05.493Z,9.75
2023-01-09T04:06:33.092Z,9.42
2023-01-09T04:09:00.713Z,9.27
2023-01-09T04:11:28.223Z,9.12
2023-01-09T04:13:55.815Z,9.01
2023-01-09T04:16:23.426Z,8.98
2023-01-09T04:18:51.248Z,9.02
2023-01-09T04:21:18.827Z,9.17
2023-01-09T04:23:46.457Z,9.16
2023-01-09T04:26:14.091Z,9.28
2023-01-09T04:28:41.727Z,9.21
2023-01-09T04:31:09.732Z,9.49
2023-01-09T04:33:37.350Z,9.19
2023-01-09T04:36:05.350Z,9.10
2023-01-09T04:38:33.305Z,9.00
2023-01-09T04:41:00.874Z,9.36
2023-01-09T04:43:28.789Z,9.44
2023-01-09T04:45:56.399Z,9.31
2023-01-09T04:48:24.215Z,9.36
2023-01-09T04:50:51.887Z,9.41
2023-01-09T04:53:19.496Z,9.47
2023-01-09T04:55:47.055Z,9.24
2023-01-09T04:58:14.705Z,9.23
2023-01-09T05:00:42.412Z,9.23
2023-01-09T05:03:10.000Z,9.17
2023-01-09T05:05:37.615Z,9.13
2023-01-09T05:08:06.120Z,9.14
2023-01-09T05:10:33.759Z,9.42
2023-01-09T05:13:01.360Z,9.28
2023-01-09T05:15:31.045Z,9.07
2023-01-09T05:17:58.807Z,9.06
2023-01-09T05:20:26.408Z,9.48
2023-01-09T05:22:54.068Z,9.63
2023-01-09T05:25:21.592Z,9.33
2023-01-09T05:27:49.128Z,9.13
2023-01-09T05:30:18.360Z,9.43
2023-01-09T05:32:46.529Z,9.29
2023-01-09T05:35:14.469Z,9.21
2023-01-09T05:37:42.165Z,9.26
2023-01-09T05:40:10.574Z,9.23
2023-01-09T05:42:38.124Z,9.17
2023-01-09T05:45:06.489Z,9.10
2023-01-09T05:47:34.080Z,8.97
2023-01-09T05:50:01.727Z,8.79
2023-01-09T05:52:29.335Z,8.90
2023-01-09T05:54:56.900Z,8.83
2023-01-09T05:57:24.515Z,8.72
2023-01-09T05:59:52.110Z,8.97
2023-01-09T06:02:19.866Z,8.89
2023-01-09T06:04:47.597Z,8.91
2023-01-09T06:08:31.060Z,8.97
2023-01-09T06:11:01.379Z,9.23
2023-01-09T06:13:32.124Z,9.08
2023-01-09T06:15:59.799Z,9.08
2023-01-09T06:18:27.327Z,9.27
2023-01-09T06:20:54.958Z,8.85
2023-01-09T06:23:22.581Z,8.83
2023-01-09T06:25:50.526Z,8.99
2023-01-09T06:28:18.063Z,8.96
2023-01-09T06:30:45.617Z,8.81
2023-01-09T06:33:13.247Z,8.65
2023-01-09T06:35:40.921Z,8.64
2023-01-09T06:38:08.705Z,8.70
2023-01-09T06:40:36.305Z,8.62
2023-01-09T06:43:05.490Z,8.82
2023-01-09T06:45:33.924Z,8.70
2023-01-09T06:48:01.787Z,8.90
2023-01-09T06:50:29.633Z,8.44
2023-01-09T06:52:57.191Z,8.65
2023-01-09T06:55:26.452Z,8.75
2023-01-09T06:57:54.265Z,8.78
2023-01-09T07:00:22.183Z,8.88
2023-01-09T07:02:49.744Z,8.66
2023-01-09T07:05:17.456Z,8.83
2023-01-09T07:07:44.983Z,9.24
2023-01-09T07:10:13.521Z,9.21
2023-01-09T07:12:41.106Z,8.79
2023-01-09T07:15:09.140Z,8.61
2023-01-09T07:17:36.938Z,8.70
2023-01-09T07:20:05.241Z,8.83
2023-01-09T07:22:33.079Z,8.72
2023-01-09T07:25:00.821Z,8.79
2023-01-09T07:27:28.903Z,8.87
2023-01-09T07:29:56.541Z,8.95
2023-01-09T07:32:24.056Z,9.04
2023-01-09T07:34:51.770Z,9.05
2023-01-09T07:37:19.877Z,8.95
2023-01-09T07:39:47.514Z,9.05
2023-01-09T07:42:15.168Z,9.08
2023-01-09T07:44:42.725Z,9.30
2023-01-09T07:47:10.305Z,9.25
2023-01-09T07:49:37.912Z,9.06
2023-01-09T07:52:05.548Z,8.85
2023-01-09T07:54:33.009Z,8.90
2023-01-09T07:57:00.539Z,9.26
2023-01-09T07:59:29.840Z,9.26
2023-01-09T08:01:57.444Z,9.00
2023-01-09T08:04:24.994Z,8.98
2023-01-09T08:06:52.556Z,9.10
2023-01-09T08:09:20.152Z,9.24
2023-01-09T08:11:47.623Z,9.01
2023-01-09T08:14:15.129Z,9.02
2023-01-09T08:16:43.826Z,9.21
2023-01-09T08:19:12.319Z,9.28
2023-01-09T08:21:40.301Z,9.26
2023-01-09T08:24:09.173Z,9.29
2023-01-09T08:26:36.735Z,9.44
2023-01-09T08:29:04.339Z,9.25
2023-01-09T08:31:31.928Z,9.21
2023-01-09T08:33:59.606Z,9.36
2023-01-09T08:36:27.275Z,9.19
2023-01-09T08:38:54.767Z,9.10
2023-01-09T08:41:41.054Z,9.03
2023-01-09T08:44:27.385Z,9.09
2023-01-09T08:47:07.215Z,9.20
2023-01-09T08:49:37.115Z,9.39
2023-01-09T08:52:05.997Z,9.39
2023-01-09T08:54:35.535Z,9.37
2023-01-09T08:57:03.195Z,9.44
2023-01-09T08:59:30.790Z,9.25
2023-01-09T09:01:58.601Z,9.24
2023-01-09T09:04:26.485Z,9.38
2023-01-09T09:06:54.025Z,9.48
2023-01-09T09:09:21.559Z,9.75
2023-01-09T09:11:49.088Z,10.03
2023-01-09T09:14:35.187Z,9.73
2023-01-09T09:17:02.897Z,10.20
2023-01-09T09:19:30.464Z,9.90
2023-01-09T09:21:58.071Z,9.84
2023-01-09T09:24:25.605Z,9.95
2023-01-09T09:26:53.319Z,9.60
2023-01-09T09:29:20.923Z,9.76
2023-01-09T09:31:48.701Z,10.20
2023-01-09T09:34:16.325Z,10.26
2023-01-09T09:36:46.292Z,10.15
2023-01-09T09:39:14.137Z,10.27
2023-01-09T09:42:06.150Z,9.97
2023-01-09T09:44:54.598Z,10.14
2023-01-09T09:47:43.535Z,10.13
2023-01-09T09:50:52.127Z,10.02
2023-01-09T09:53:27.943Z,10.05
2023-01-09T09:55:57.623Z,10.24
2023-01-09T09:58:42.326Z,9.96
2023-01-09T10:01:16.844Z,10.13
2023-01-09T10:03:48.012Z,10.22
2023-01-09T10:06:31.447Z,10.00
2023-01-09T10:09:32.490Z,10.06
2023-01-09T10:12:21.522Z,10.12
2023-01-09T10:14:49.079Z,10.22
2023-01-09T10:17:22.288Z,10.26
2023-01-09T10:20:09.089Z,10.29
2023-01-09T10:22:39.253Z,10.07
2023-01-09T10:25:23.175Z,10.01
2023-01-09T10:28:15.425Z,10.05
2023-01-09T10:31:19.649Z,10.07
2023-01-09T10:34:04.269Z,10.15
2023-01-09T10:36:43.503Z,10.27
2023-01-09T10:39:19.485Z,10.38
2023-01-09T10:41:54.124Z,10.58
2023-01-09T10:44:33.412Z,10.44
2023-01-09T10:47:03.926Z,10.12
2023-01-09T10:49:31.450Z,10.03
2023-01-09T10:52:16.943Z,9.98
2023-01-09T10:54:54.530Z,10.00
2023-01-09T10:57:44.374Z,9.92
2023-01-09T11:00:18.108Z,9.95
2023-01-09T11:02:46.551Z,9.89
2023-01-09T11:05:22.525Z,9.81
2023-01-09T11:07:56.992Z,9.82
2023-01-09T11:10:45.305Z,9.99
2023-01-09T11:13:23.539Z,10.12
2023-01-09T11:16:07.431Z,10.06
2023-01-09T11:18:47.736Z,10.10
2023-01-09T11:21:35.905Z,10.12
2023-01-09T11:24:21.577Z,9.95
2023-01-09T11:26:51.035Z,9.92
2023-01-09T11:29:26.211Z,9.93
2023-01-09T11:31:58.828Z,9.86
2023-01-09T11:34:29.275Z,10.07
2023-01-09T11:37:19.160Z,10.01
2023-01-09T11:39:48.183Z,9.92
2023-01-09T11:42:48.305Z,9.94
2023-01-09T11:45:18.747Z,9.73
2023-01-09T11:47:46.750Z,9.83
2023-01-09T11:50:26.420Z,10.02
2023-01-09T11:53:19.851Z,10.20
2023-01-09T11:55:55.895Z,9.97
2023-01-09T11:58:23.698Z,10.29
2023-01-09T12:01:00.631Z,10.06
2023-01-09T12:03:44.493Z,10.15
2023-01-09T12:06:48.668Z,10.44
2023-01-09T12:09:27.875Z,10.42
2023-01-09T12:12:05.144Z,10.42
2023-01-09T12:14:45.902Z,10.48
2023-01-09T12:17:23.077Z,10.55
2023-01-09T12:20:20.975Z,10.42
2023-01-09T12:23:23.275Z,10.65
2023-01-09T12:25:50.574Z,10.79
2023-01-09T12:28:38.390Z,10.73
2023-01-09T12:31:29.152Z,10.70
2023-01-09T12:34:15.292Z,11.37
2023-01-09T12:37:01.920Z,11.41
2023-01-09T12:39:53.984Z,11.40
2023-01-09T12:42:54.714Z,11.51
2023-01-09T12:45:47.624Z,11.13
2023-01-09T12:48:44.049Z,10.83
2023-01-09T12:51:29.554Z,10.79
2023-01-09T12:54:08.573Z,10.63
2023-01-09T12:56:40.995Z,10.46
2023-01-09T12:59:30.655Z,11.03
2023-01-09T13:02:44.862Z,11.18
2023-01-09T13:05:31.138Z,11.52
2023-01-09T13:08:20.311Z,11.32
2023-01-09T13:10:52.214Z,11.53
2023-01-09T13:13:31.072Z,11.42
2023-01-09T13:16:01.888Z,11.60
2023-01-09T13:18:36.065Z,11.40
2023-01-09T13:21:04.034Z,11.37
2023-01-09T13:23:35.721Z,11.31
2023-01-09T13:26:06.422Z,11.31
2023-01-09T13:28:47.003Z,11.26
2023-01-09T13:31:38.541Z,11.24
2023-01-09T13:34:21.531Z,11.79
2023-01-09T13:36:55.836Z,11.94
2023-01-09T13:42:36.447Z,11.87
2023-01-09T13:45:25.699Z,11.14
2023-01-09T13:48:08.629Z,10.78
2023-01-09T13:50:37.296Z,10.82
2023-01-09T13:53:27.773Z,10.77
2023-01-09T13:55:58.932Z,10.90
2023-01-09T13:58:36.943Z,11.22
2023-01-09T14:01:34.552Z,11.33
2023-01-09T14:04:21.367Z,11.56
2023-01-09T14:07:15.678Z,11.50
2023-01-09T14:09:49.804Z,11.49
2023-01-09T14:12:21.533Z,11.77
2023-01-09T14:14:50.991Z,11.74
2023-01-09T14:17:33.537Z,11.58
2023-01-09T14:20:23.526Z,11.58
2023-01-09T14:23:18.075Z,11.61
2023-01-09T14:25:45.991Z,11.81
2023-01-09T14:28:30.634Z,11.62
2023-01-09T14:30:58.323Z,11.22
2023-01-09T14:33:30.435Z,11.24
2023-01-09T14:36:21.902Z,10.95
2023-01-09T14:38:53.539Z,10.70
2023-01-09T14:42:09.223Z,10.53
2023-01-09T14:44:44.946Z,10.45
2023-01-09T14:47:28.761Z,10.35
2023-01-09T14:50:06.196Z,10.13
2023-01-09T14:52:38.811Z,10.40
2023-01-09T14:55:20.865Z,10.40
2023-01-09T14:57:52.339Z,10.42
2023-01-09T15:00:21.554Z,10.11
2023-01-09T15:02:51.947Z,9.99
2023-01-09T15:05:23.746Z,9.95
2023-01-09T15:08:04.155Z,9.75
2023-01-09T15:10:35.485Z,9.80
2023-01-09T15:13:08.146Z,9.91
2023-01-09T15:15:36.120Z,9.88
2023-01-09T15:18:08.178Z,9.65
2023-01-09T15:20:35.820Z,9.66
2023-01-09T15:23:06.568Z,9.76
2023-01-09T15:25:39.208Z,9.82
2023-01-09T15:28:27.315Z,9.85
2023-01-09T15:31:14.364Z,9.65
2023-01-09T15:33:44.844Z,9.47
2023-01-09T15:36:24.736Z,9.17
2023-01-09T15:38:53.339Z,9.13
2023-01-09T15:41:47.790Z,9.18
2023-01-09T15:44:37.226Z,8.89
2023-01-09T15:47:08.208Z,9.06
2023-01-09T15:49:37.404Z,9.02
2023-01-09T15:52:05.121Z,8.99
2023-01-09T15:54:34.116Z,8.98
2023-01-09T15:57:27.074Z,8.93
2023-01-09T15:59:55.859Z,8.86
2023-01-09T16:02:43.633Z,8.67
2023-01-09T16:05:18.013Z,8.87
2023-01-09T16:07:47.549Z,8.99
2023-01-09T16:10:28.427Z,8.49
2023-01-09T16:12:56.353Z,8.44
2023-01-09T16:15:23.775Z,8.18
2023-01-09T16:18:06.247Z,8.20
2023-01-09T16:20:33.856Z,8.37
2023-01-09T16:23:02.788Z,8.22
2023-01-09T16:25:34.809Z,8.52
2023-01-09T16:28:26.944Z,8.52
2023-01-09T16:30:58.907Z,8.98
2023-01-09T16:33:29.406Z,9.03
2023-01-09T16:36:01.023Z,8.92
2023-01-09T16:38:28.731Z,8.91
2023-01-09T16:41:18.932Z,8.71
2023-01-09T16:43:46.949Z,8.62
2023-01-09T16:46:16.306Z,8.60
2023-01-09T16:48:44.038Z,8.63
2023-01-09T16:51:22.122Z,8.58
2023-01-09T16:53:50.882Z,8.63
2023-01-09T16:56:28.551Z,8.52
2023-01-09T16:58:56.273Z,8.44
2023-01-09T17:01:24.070Z,8.57
2023-01-09T17:03:52.677Z,8.50
2023-01-09T17:06:31.320Z,8.28
2023-01-09T17:08:59.136Z,8.19
2023-01-09T17:11:32.162Z,8.14
2023-01-09T17:14:00.877Z,7.89
2023-01-09T17:16:29.356Z,8.13
2023-01-09T17:18:56.945Z,7.70
2023-01-09T17:21:26.926Z,7.84
2023-01-09T17:24:13.710Z,8.01
2023-01-09T17:27:02.526Z,8.07
2023-01-09T17:29:30.395Z,8.11
2023-01-09T17:31:58.129Z,7.77
2023-01-09T17:34:25.706Z,7.97
2023-01-09T17:36:55.737Z,7.84
2023-01-09T17:39:26.490Z,7.99
2023-01-09T17:41:53.873Z,7.79
2023-01-09T17:44:21.327Z,7.85
2023-01-09T17:46:48.721Z,7.92
2023-01-09T17:49:19.014Z,7.81
2023-01-09T17:51:46.499Z,7.80
2023-01-09T17:54:14.596Z,7.50
2023-01-09T17:56:45.688Z,7.72
2023-01-09T17:59:16.488Z,7.42
2023-01-09T18:01:44.741Z,7.51
2023-01-09T18:04:12.481Z,7.73
2023-01-09T18:06:40.108Z,7.69
2023-01-09T18:09:07.842Z,7.59
2023-01-09T18:11:35.329Z,7.38
2023-01-09T18:14:02.741Z,7.45
2023-01-09T18:16:30.466Z,7.42
2023-01-09T18:18:58.771Z,7.34
2023-01-09T18:21:28.626Z,7.43
2023-01-09T18:23:57.891Z,7.08
2023-01-09T18:26:25.468Z,6.96
2023-01-09T18:28:56.981Z,6.97
2023-01-09T18:31:26.852Z,7.05
2023-01-09T18:33:56.624Z,7.19
2023-01-09T18:36:30.204Z,7.29
2023-01-09T18:39:07.139Z,7.14
2023-01-09T18:41:38.435Z,7.03
2023-01-09T18:44:05.800Z,6.82
2023-01-09T18:46:33.580Z,6.98
2023-01-09T18:49:11.942Z,7.23
2023-01-09T18:51:40.817Z,7.49
2023-01-09T18:54:08.609Z,7.46
2023-01-09T18:56:36.150Z,7.52
2023-01-09T18:59:05.009Z,7.50
2023-01-09T19:01:32.831Z,7.64
2023-01-09T19:04:01.125Z,7.44
2023-01-09T19:06:30.073Z,7.44
2023-01-09T19:09:00.848Z,7.45
2023-01-09T19:11:28.498Z,7.47
2023-01-09T19:13:55.996Z,7.54
2023-01-09T19:16:23.526Z,7.57
2023-01-09T19:18:51.039Z,7.43
2023-01-09T19:21:21.065Z,7.37
2023-01-09T19:23:49.180Z,7.41
2023-01-09T19:26:23.764Z,7.35
2023-01-09T19:28:55.167Z,7.31
2023-01-09T19:31:24.833Z,7.33
2023-01-09T19:33:53.128Z,7.27
2023-01-09T19:36:21.962Z,7.39
2023-01-09T19:38:49.733Z,7.42
2023-01-09T19:41:19.585Z,7.38
2023-01-09T19:43:48.006Z,7.47
2023-01-09T19:46:19.233Z,7.52
2023-01-09T19:48:47.010Z,7.49
2023-01-09T19:51:17.114Z,7.45
2023-01-09T19:53:45.362Z,7.35
2023-01-09T19:56:18.158Z,7.35
2023-01-09T19:58:55.984Z,7.46
2023-01-09T20:01:26.537Z,7.45
2023-01-09T20:03:56.624Z,7.47
2023-01-09T20:06:43.848Z,7.32
2023-01-09T20:09:14.018Z,7.47
2023-01-09T20:11:45.127Z,7.55
2023-01-09T20:14:14.256Z,7.42
2023-01-09T20:16:42.939Z,7.53
2023-01-09T20:19:12.363Z,7.35
2023-01-09T20:21:40.111Z,7.38
2023-01-09T20:24:09.245Z,7.27
2023-01-09T20:26:37.782Z,7.30
2023-01-09T20:29:05.517Z,7.17
2023-01-09T20:31:33.351Z,7.20
2023-01-09T20:34:01.596Z,7.29
2023-01-09T20:36:31.208Z,7.30
2023-01-09T20:39:01.101Z,7.22
2023-01-09T20:41:31.130Z,7.32
2023-01-09T20:44:02.327Z,7.10
2023-01-09T20:46:34.973Z,6.85
2023-01-09T20:49:16.726Z,7.04
2023-01-09T20:51:52.116Z,7.06
2023-01-09T20:54:48.482Z,6.56
2023-01-09T20:58:33.392Z,6.33
2023-01-09T21:10:23.366Z,6.54
2023-01-09T21:17:28.438Z,6.50
2023-01-09T21:20:14.989Z,6.17
2023-01-09T21:22:51.339Z,6.11
2023-01-09T21:25:20.237Z,5.86
2023-01-09T21:28:12.029Z,5.98
2023-01-09T21:30:56.723Z,5.81
2023-01-09T21:34:19.752Z,5.81
2023-01-09T21:37:14.938Z,5.66
2023-01-09T21:43:54.795Z,5.65
2023-01-09T21:55:11.147Z,5.74
2023-01-09T21:57:39.212Z,5.45
2023-01-09T22:00:16.971Z,5.36
2023-01-09T22:02:47.487Z,5.70
2023-01-09T22:05:22.228Z,5.53
2023-01-09T22:07:50.546Z,5.57
2023-01-09T22:14:15.936Z,5.25
2023-01-09T22:16:45.584Z,5.18
2023-01-09T22:19:22.621Z,4.98
2023-01-09T22:22:22.801Z,5.06
2023-01-09T22:24:50.054Z,5.21
2023-01-09T22:27:43.947Z,5.15
2023-01-09T22:30:12.548Z,5.14
2023-01-09T22:32:40.707Z,5.08
2023-01-09T22:35:12.361Z,4.97
2023-01-09T22:37:46.845Z,4.96
2023-01-09T22:40:30.187Z,4.64
2023-01-09T22:43:34.008Z,4.59
2023-01-09T22:46:45.959Z,4.34
2023-01-09T23:19:16.123Z,4.57
2023-01-09T23:55:19.331Z,3.92
2023-01-09T23:58:56.970Z,3.80
